El Paso, TX (88520)

1:50 AM MDT on May 25, 2015 (GMT -0600)
SAN CLEMENTE ESTATES | | Change Station
CLOSE
Current Station
Personal Weather Station
Location: EL PASO, TX
Elevation: 4606 ft
Nearby Weather Stations

Elev 4606 ft 31.82 °N, 106.50 °W | Updated 18 seconds ago

Mostly Cloudy
Mostly Cloudy
64.6 °F
Feels Like 64.6 °F
N
4.5
Wind Variable Wind from SW
Gusts 4.5 mph

Today
High -- | Low -- °F
--% Chance of Precip.
Yesterday
High -- | Low -- °F
Precip. -- in
6:03 AM 8:02 PM
Waxing Crescent, 46% visible
Pressure 29.73 in
Visibility 10.0 miles
Clouds Few 12000 ft
Scattered Clouds 15000 ft
Mostly Cloudy 18000 ft
Mostly Cloudy 25000 ft
Dew Point 16 °F
Humidity 15%
Rainfall 0.00 in
Snow Depth Not available.
UV 0.0 out of 12
Pollen 5.90 out of 12
Air Quality Not available.
Flu Activity Sporadic
METAR KELP 250651Z 28016G21KT 10SM FEW120 SCT150 BKN180 BKN250 21/M02 A2992 RMK AO2 PK WND 27026/0609 SLP066 VIRGA OHD-N-SW T02111022 402780167

More Conditions Fewer Conditions

Pressure 29.73 in
Visibility 10.0 miles
Clouds Few 12000 ft
Scattered Clouds 15000 ft
Mostly Cloudy 18000 ft
Mostly Cloudy 25000 ft
Dew Point 16 °F
Humidity 15%
Rainfall 0.00 in
Snow Depth Not available.
UV 0.0 out of 12
Pollen 5.90 out of 12
Air Quality Not available.
Flu Activity Sporadic
METAR KELP 250651Z 28016G21KT 10SM FEW120 SCT150 BKN180 BKN250 21/M02 A2992 RMK AO2 PK WND 27026/0609 SLP066 VIRGA OHD-N-SW T02111022 402780167

More Conditions Fewer Conditions

10-Day Weather Forecast

Almanac

Astronomy

May. 25, 2015 Rise Set
Actual Time
Civil Twilight
Nautical Twilight
Astronomical Twilight
Moon
Length of Visible Light
Length of Day
Tomorrow will be .
, % of the Moon is Illuminated

Today's Extremes

State Highs State Lows

Community

WunderPhotos

Upload Photos

1,823,959 photos uploaded!

WunderBlogs® & News

Nearby

Air Quality

  Air Quality AQ Index Pollutant
Not available.

Snow Depth

Station Depth Elevation

Earthquake Activity

City Distance Mag. Time & Date
Minimum magnitude displayed is 2.5.

Coastal Water Temperatures

Place Temperature

Stations

Nearby Weather Stations

Station Location Temp. Windchill Dew Point Humidity Wind Precip. Elev Updated Type